Flight Track Log - Related Links

Times and Time Zones

All times are in EDT time to prevent confusion due to time zone crossing. See the PT-TCV flight status page for this flight to view local times or setup timezone preferences in your user account.

Time Position Orientation Groundspeed Altitude Reporting Facility
EDT Latitude Longitude Course Direction KTS MPH feet Rate Location/Type
Fri 07:24:46 AM 26.0719 -80.1758 277° West 174 200 600  Level Miami Center
Fri 07:25:23 AM 26.0753 -80.2083 277° West 189 217 1,900 1,582 Climbing Miami Center
Fri 07:26:17 AM 26.0931 -80.2597 291° West 230 265 3,000 843 Climbing Miami Center
Fri 07:27:24 AM 26.1617 -80.2664 355° North 225 259 3,600 1,140 Climbing Miami Center
Fri 07:27:57 AM 26.2019 -80.2514 18° North 237 273 4,900 2,239 Climbing Miami Center
Fri 07:28:31 AM 26.2253 -80.2333 35° Northeast 244 281 6,100 1,800 Climbing Miami Center
Fri 07:28:57 AM 26.2492 -80.1969 54° Northeast 288 331 6,700 2,239 Climbing Miami Center
Fri 07:29:38 AM 26.2522 -80.1439 86° East 297 342 8,600 2,600 Climbing Miami Center
Fri 07:29:57 AM 26.2572 -80.1069 81° East 294 338 9,300 2,051 Climbing Miami Center
Fri 07:30:57 AM 26.2633 -80.0261 85° East 376 433 11,300 1,350 Climbing Miami Center
Fri 07:31:57 AM 26.2742 -79.9081 84° East 350 403 12,000 350 Climbing Miami Center
Fri 07:32:57 AM 26.2847 -79.7994 84° East 373 429 12,000 650 Level Miami Center
Fri 07:33:57 AM 26.2956 -79.6722 85° East 379 436 13,300 1,750 Climbing Miami Center
Fri 07:34:57 AM 26.3039 -79.5683 85° East 379 436 15,500 2,000 Climbing Miami Center
Fri 07:35:57 AM 26.2517 -79.4558 117° Southeast 362 417 17,300 1,850 Climbing Miami Center
Fri 07:36:57 AM 26.1797 -79.3781 136° Southeast 356 410 19,200 1,600 Climbing Miami Center
Fri 07:37:57 AM 26.1017 -79.2975 137° Southeast 362 417 20,500 1,350 Climbing Miami Center
Fri 07:38:57 AM 26.0194 -79.2128 137° Southeast 383 441 21,900 1,300 Climbing Miami Center
Fri 07:39:57 AM 25.9372 -79.1303 138° Southeast 399 459 23,100 1,550 Climbing Miami Center
Fri 07:40:57 AM 25.8356 -79.0844 158° South 399 459 25,000 1,700 Climbing Miami Center
Fri 07:41:57 AM 25.7317 -79.0478 162° South 393 452 26,500 1,350 Climbing Miami Center
Fri 07:42:57 AM 25.6236 -79.0114 163° South 393 452 27,700 1,250 Climbing Miami Center
Fri 07:43:57 AM 25.5197 -78.9750 162° South 393 452 29,000 1,150 Climbing Miami Center
Fri 07:44:57 AM 25.4364 -78.9483 164° South 398 458 30,000 1,150 Climbing Miami Center
Fri 07:45:57 AM 25.3181 -78.9072 163° South 398 458 31,300 1,250 Climbing Miami Center
Fri 07:46:57 AM 25.2075 -78.8756 165° South 398 458 32,500 1,150 Climbing Miami Center
Fri 07:47:57 AM 25.1017 -78.8369 162° South 398 458 33,600 1,000 Climbing Miami Center
Fri 07:48:57 AM 24.9933 -78.8008 163° South 398 458 34,500 900 Climbing Miami Center
Fri 07:49:57 AM 24.8853 -78.7625 162° South 404 465 35,400 850 Climbing Miami Center
Fri 07:50:57 AM 24.7811 -78.7267 163° South 404 465 36,200 750 Climbing Miami Center
Fri 07:51:57 AM 24.6731 -78.6906 163° South 399 459 36,900 700 Climbing Miami Center
Fri 07:52:57 AM 24.5647 -78.6547 163° South 399 459 37,600 650 Climbing Miami Center
Fri 07:53:57 AM 24.4606 -78.6192 163° South 399 459 38,200 600 Climbing Miami Center
Fri 07:54:57 AM 24.3544 -78.5833 163° South 399 459 38,800 400 Climbing Miami Center
Fri 07:55:57 AM 24.2506 -78.5456 162° South 393 452 39,000 100 Climbing Miami Center
Fri 07:56:57 AM 24.1403 -78.5075 163° South 398 458 39,000  Level Miami Center
Fri 07:57:57 AM 24.0319 -78.4697 162° South 398 458 39,000  Level Miami Center
Fri 07:59:00 AM 23.9311 -78.3949 144° Southeast  Level FlightAware Approximate
Fri 08:06:00 AM 23.2631 -77.8734 144° Southeast  Level FlightAware Approximate
Fri 08:07:00 AM 23.1674 -77.7995 145° Southeast  Level FlightAware Approximate
Fri 08:08:00 AM 23.0716 -77.7257 145° Southeast  Level FlightAware Approximate
Fri 08:09:00 AM 22.9763 -77.6514 144° Southeast  Level FlightAware Approximate
Fri 08:10:00 AM 22.8814 -77.5764 144° Southeast  Level FlightAware Approximate
Fri 08:11:00 AM 22.7865 -77.5015 144° Southeast  Level FlightAware Approximate
Fri 08:12:00 AM 22.6916 -77.4267 144° Southeast  Level FlightAware Approximate
Fri 08:13:00 AM 22.5967 -77.3520 144° Southeast  Level FlightAware Approximate
Fri 08:14:00 AM 22.5017 -77.2773 144° Southeast  Level FlightAware Approximate
Fri 08:15:00 AM 22.4067 -77.2028 144° Southeast  Level FlightAware Approximate
Fri 08:16:00 AM 22.3117 -77.1283 144° Southeast  Level FlightAware Approximate
Fri 08:17:00 AM 22.2167 -77.0540 144° Southeast  Level FlightAware Approximate
Fri 08:18:00 AM 22.1216 -76.9797 144° Southeast  Level FlightAware Approximate
Fri 08:19:00 AM 22.0264 -76.9056 144° Southeast  Level FlightAware Approximate
Fri 08:20:00 AM 21.9313 -76.8316 144° Southeast  Level FlightAware Approximate
Fri 08:21:00 AM 21.8361 -76.7576 144° Southeast  Level FlightAware Approximate
Fri 08:22:00 AM 21.7406 -76.6842 145° Southeast  Level FlightAware Approximate
Fri 08:23:00 AM 21.6446 -76.6115 145° Southeast  Level FlightAware Approximate
Fri 08:24:00 AM 21.5487 -76.5388 145° Southeast  Level FlightAware Approximate
Fri 08:25:00 AM 21.4527 -76.4663 145° Southeast  Level FlightAware Approximate
Fri 08:26:00 AM 21.3566 -76.3939 145° Southeast  Level FlightAware Approximate
Fri 08:27:00 AM 21.2606 -76.3215 145° Southeast  Level FlightAware Approximate
Fri 08:28:00 AM 21.1645 -76.2493 145° Southeast  Level FlightAware Approximate
Fri 08:29:00 AM 21.0684 -76.1771 145° Southeast  Level FlightAware Approximate
Fri 08:30:00 AM 20.9722 -76.1051 145° Southeast  Level FlightAware Approximate
Fri 08:31:00 AM 20.8760 -76.0331 145° Southeast  Level FlightAware Approximate
Fri 08:32:00 AM 20.7798 -75.9612 145° Southeast  Level FlightAware Approximate
Fri 08:33:00 AM 20.6836 -75.8895 145° Southeast  Level FlightAware Approximate
Fri 08:34:00 AM 20.5873 -75.8178 145° Southeast  Level FlightAware Approximate
Fri 08:35:00 AM 20.4910 -75.7462 145° Southeast  Level FlightAware Approximate
Fri 08:36:00 AM 20.3947 -75.6747 145° Southeast  Level FlightAware Approximate
Fri 08:37:00 AM 20.2983 -75.6032 145° Southeast  Level FlightAware Approximate
Fri 08:38:00 AM 20.2019 -75.5319 145° Southeast  Level FlightAware Approximate
Fri 08:39:00 AM 20.1055 -75.4606 145° Southeast  Level FlightAware Approximate
Fri 08:40:00 AM 20.0091 -75.3895 145° Southeast  Level FlightAware Approximate
Fri 08:41:00 AM 19.9126 -75.3184 145° Southeast  Level FlightAware Approximate
Fri 08:42:00 AM 19.8161 -75.2474 145° Southeast  Level FlightAware Approximate
Fri 08:43:00 AM 19.7196 -75.1765 145° Southeast  Level FlightAware Approximate
Fri 08:44:00 AM 19.6230 -75.1057 145° Southeast  Level FlightAware Approximate
Fri 08:45:00 AM 19.5264 -75.0350 145° Southeast  Level FlightAware Approximate
Fri 08:46:00 AM 19.4298 -74.9643 145° Southeast  Level FlightAware Approximate
Fri 08:47:00 AM 19.3332 -74.8938 145° Southeast  Level FlightAware Approximate
Fri 08:48:00 AM 19.2365 -74.8233 145° Southeast  Level FlightAware Approximate
Fri 08:49:00 AM 19.1398 -74.7529 145° Southeast  Level FlightAware Approximate
Fri 08:50:00 AM 19.0431 -74.6826 146° Southeast  Level FlightAware Approximate
Fri 08:51:00 AM 18.9464 -74.6124 146° Southeast  Level FlightAware Approximate
Fri 08:52:00 AM 18.8498 -74.5420 145° Southeast  Level FlightAware Approximate
Fri 08:53:00 AM 18.7535 -74.4711 145° Southeast  Level FlightAware Approximate
Fri 08:54:00 AM 18.6571 -74.4004 145° Southeast  Level FlightAware Approximate
Fri 08:55:00 AM 18.5608 -74.3297 145° Southeast  Level FlightAware Approximate
Fri 08:56:00 AM 18.4644 -74.2592 145° Southeast  Level FlightAware Approximate
Fri 08:57:00 AM 18.3680 -74.1887 145° Southeast  Level FlightAware Approximate
Fri 08:58:00 AM 18.2716 -74.1182 145° Southeast  Level FlightAware Approximate
Fri 08:59:00 AM 18.1751 -74.0479 145° Southeast  Level FlightAware Approximate
Fri 09:00:00 AM 18.0786 -73.9776 145° Southeast  Level FlightAware Approximate
Fri 09:01:00 AM 17.9821 -73.9074 145° Southeast  Level FlightAware Approximate
Fri 09:02:00 AM 17.8856 -73.8373 145° Southeast  Level FlightAware Approximate
Fri 09:03:00 AM 17.7890 -73.7673 145° Southeast  Level FlightAware Approximate
Fri 09:04:00 AM 17.6924 -73.6973 145° Southeast  Level FlightAware Approximate
Fri 09:05:00 AM 17.5958 -73.6274 145° Southeast  Level FlightAware Approximate
Fri 09:06:00 AM 17.4992 -73.5576 145° Southeast  Level FlightAware Approximate
Fri 09:07:00 AM 17.4025 -73.4878 145° Southeast  Level FlightAware Approximate
Fri 09:08:00 AM 17.3053 -73.4191 147° Southeast  Level FlightAware Approximate
Fri 09:09:00 AM 17.2073 -73.3514 147° Southeast  Level FlightAware Approximate
Fri 09:10:00 AM 17.1094 -73.2838 147° Southeast  Level FlightAware Approximate
Fri 09:11:00 AM 17.0114 -73.2162 147° Southeast  Level FlightAware Approximate
Fri 09:12:00 AM 16.9134 -73.1488 147° Southeast  Level FlightAware Approximate
Fri 09:13:00 AM 16.8158 -73.0807 146° Southeast  Level FlightAware Approximate
Fri 09:14:00 AM 16.7187 -73.0119 146° Southeast  Level FlightAware Approximate
Fri 09:15:00 AM 16.6215 -72.9433 146° Southeast  Level FlightAware Approximate
Fri 09:16:00 AM 16.5243 -72.8747 146° Southeast  Level FlightAware Approximate
Fri 09:17:00 AM 16.4270 -72.8062 146° Southeast  Level FlightAware Approximate
Fri 09:18:00 AM 16.3298 -72.7377 146° Southeast  Level FlightAware Approximate
Fri 09:19:00 AM 16.2325 -72.6693 146° Southeast  Level FlightAware Approximate
Fri 09:20:00 AM 16.1353 -72.6010 146° Southeast  Level FlightAware Approximate
Fri 09:21:00 AM 16.0380 -72.5327 146° Southeast  Level FlightAware Approximate
Fri 09:22:00 AM 15.9406 -72.4645 146° Southeast  Level FlightAware Approximate
Fri 09:23:00 AM 15.8433 -72.3964 146° Southeast  Level FlightAware Approximate
Fri 09:24:00 AM 15.7459 -72.3284 146° Southeast  Level FlightAware Approximate
Fri 09:25:00 AM 15.6485 -72.2604 146° Southeast  Level FlightAware Approximate
Fri 09:26:00 AM 15.5511 -72.1925 146° Southeast  Level FlightAware Approximate
Fri 09:27:00 AM 15.4537 -72.1246 146° Southeast  Level FlightAware Approximate
Fri 09:28:00 AM 15.3562 -72.0568 146° Southeast  Level FlightAware Approximate
Fri 09:29:00 AM 15.2587 -71.9891 146° Southeast  Level FlightAware Approximate
Fri 09:30:00 AM 15.1612 -71.9214 146° Southeast  Level FlightAware Approximate
Fri 09:31:00 AM 15.0637 -71.8538 146° Southeast  Level FlightAware Approximate
Fri 09:32:00 AM 14.9662 -71.7863 146° Southeast  Level FlightAware Approximate
Fri 09:33:00 AM 14.8686 -71.7188 146° Southeast  Level FlightAware Approximate
Fri 09:34:00 AM 14.7710 -71.6514 146° Southeast  Level FlightAware Approximate
Fri 09:35:00 AM 14.6734 -71.5840 146° Southeast  Level FlightAware Approximate
Fri 09:36:00 AM 14.5758 -71.5167 146° Southeast  Level FlightAware Approximate
Fri 09:37:00 AM 14.4782 -71.4495 146° Southeast  Level FlightAware Approximate
Fri 09:38:00 AM 14.3805 -71.3823 146° Southeast  Level FlightAware Approximate
Fri 09:39:00 AM 14.2829 -71.3152 146° Southeast  Level FlightAware Approximate
Fri 09:40:00 AM 14.1852 -71.2481 146° Southeast  Level FlightAware Approximate
Fri 09:41:00 AM 14.0875 -71.1811 146° Southeast  Level FlightAware Approximate
Fri 09:42:00 AM 13.9897 -71.1141 146° Southeast  Level FlightAware Approximate
Fri 09:43:00 AM 13.8920 -71.0472 146° Southeast  Level FlightAware Approximate
Fri 09:44:00 AM 13.7942 -70.9804 146° Southeast  Level FlightAware Approximate
Fri 09:45:00 AM 13.6965 -70.9136 146° Southeast  Level FlightAware Approximate
Fri 09:46:00 AM 13.5986 -70.8469 146° Southeast  Level FlightAware Approximate
Fri 09:47:00 AM 13.5008 -70.7802 146° Southeast  Level FlightAware Approximate
Fri 09:48:00 AM 13.4030 -70.7136 146° Southeast  Level FlightAware Approximate
Fri 09:49:00 AM 13.3051 -70.6470 146° Southeast  Level FlightAware Approximate
Fri 09:50:00 AM 13.2073 -70.5805 147° Southeast  Level FlightAware Approximate
Fri 09:51:00 AM 13.1094 -70.5141 147° Southeast  Level FlightAware Approximate
Fri 09:52:00 AM 13.0115 -70.4477 147° Southeast  Level FlightAware Approximate
Fri 09:53:00 AM 12.9136 -70.3813 147° Southeast  Level FlightAware Approximate
Fri 09:54:00 AM 12.8156 -70.3150 147° Southeast  Level FlightAware Approximate
Fri 09:55:00 AM 12.7177 -70.2488 147° Southeast  Level FlightAware Approximate
Fri 09:56:00 AM 12.6197 -70.1826 147° Southeast  Level FlightAware Approximate
Fri 09:57:00 AM 12.5217 -70.1164 147° Southeast  Level FlightAware Approximate
Fri 09:58:00 AM 12.4237 -70.0503 147° Southeast  Level FlightAware Approximate
Fri 09:59:00 AM 12.3257 -69.9843 147° Southeast  Level FlightAware Approximate
Fri 10:00:00 AM 12.2277 -69.9183 147° Southeast  Level FlightAware Approximate
Fri 10:01:00 AM 12.1297 -69.8522 147° Southeast  Level FlightAware Approximate
Fri 10:02:00 AM 12.0317 -69.7862 147° Southeast  Level FlightAware Approximate
Fri 10:03:00 AM 11.9337 -69.7202 147° Southeast  Level FlightAware Approximate
Fri 10:04:00 AM 11.8357 -69.6543 147° Southeast  Level FlightAware Approximate
Fri 10:05:00 AM 11.7377 -69.5884 147° Southeast  Level FlightAware Approximate
Fri 10:06:00 AM 11.6396 -69.5226 147° Southeast  Level FlightAware Approximate
Fri 10:07:00 AM 11.5415 -69.4568 147° Southeast  Level FlightAware Approximate
Fri 10:08:00 AM 11.4435 -69.3910 147° Southeast  Level FlightAware Approximate
Fri 10:09:00 AM 11.3454 -69.3253 147° Southeast  Level FlightAware Approximate
Fri 10:10:00 AM 11.2473 -69.2597 147° Southeast  Level FlightAware Approximate
Fri 10:11:00 AM 11.1491 -69.1941 147° Southeast  Level FlightAware Approximate
Fri 10:12:00 AM 11.0510 -69.1285 147° Southeast  Level FlightAware Approximate
Fri 10:13:00 AM 10.9528 -69.0632 147° Southeast  Level FlightAware Approximate
Fri 10:14:00 AM 10.8542 -68.9982 147° Southeast  Level FlightAware Approximate
Fri 10:15:00 AM 10.7557 -68.9333 147° Southeast  Level FlightAware Approximate
Fri 10:16:00 AM 10.6572 -68.8685 147° Southeast  Level FlightAware Approximate
Fri 10:17:00 AM 10.5586 -68.8037 147° Southeast  Level FlightAware Approximate
Fri 10:18:00 AM 10.4601 -68.7389 147° Southeast  Level FlightAware Approximate
Fri 10:19:00 AM 10.3615 -68.6742 147° Southeast  Level FlightAware Approximate
Fri 10:20:00 AM 10.2630 -68.6093 147° Southeast  Level FlightAware Approximate
Fri 10:21:00 AM 10.1646 -68.5445 147° Southeast  Level FlightAware Approximate
Fri 10:22:00 AM 10.0661 -68.4797 147° Southeast  Level FlightAware Approximate
Fri 10:23:00 AM 9.9676 -68.4149 147° Southeast  Level FlightAware Approximate
Fri 10:24:00 AM 9.8691 -68.3501 147° Southeast  Level FlightAware Approximate
Fri 10:25:00 AM 9.7706 -68.2854 147° Southeast  Level FlightAware Approximate
Fri 10:26:00 AM 9.6727 -68.2198 146° Southeast  Level FlightAware Approximate
Fri 10:27:00 AM 9.5754 -68.1532 146° Southeast  Level FlightAware Approximate
Fri 10:28:00 AM 9.4782 -68.0866 146° Southeast  Level FlightAware Approximate
Fri 10:29:00 AM 9.3810 -68.0201 146° Southeast  Level FlightAware Approximate
Fri 10:30:00 AM 9.2837 -67.9535 146° Southeast  Level FlightAware Approximate
Fri 10:31:00 AM 9.1864 -67.8871 146° Southeast  Level FlightAware Approximate
Fri 10:32:00 AM 9.0891 -67.8206 146° Southeast  Level FlightAware Approximate
Fri 10:33:00 AM 8.9907 -67.7558 147° Southeast  Level FlightAware Approximate
Fri 10:34:00 AM 8.8923 -67.6912 147° Southeast  Level FlightAware Approximate
Fri 10:35:00 AM 8.7938 -67.6266 147° Southeast  Level FlightAware Approximate
Fri 10:36:00 AM 8.6954 -67.5620 147° Southeast  Level FlightAware Approximate
Fri 10:37:00 AM 8.5969 -67.4975 147° Southeast  Level FlightAware Approximate
Fri 10:38:00 AM 8.4984 -67.4330 147° Southeast  Level FlightAware Approximate
Fri 10:39:00 AM 8.3999 -67.3685 147° Southeast  Level FlightAware Approximate
Fri 10:40:00 AM 8.3014 -67.3041 147° Southeast  Level FlightAware Approximate
Fri 10:41:00 AM 8.2028 -67.2397 147° Southeast  Level FlightAware Approximate
Fri 10:42:00 AM 8.1043 -67.1753 147° Southeast  Level FlightAware Approximate
Fri 10:43:00 AM 8.0057 -67.1110 147° Southeast  Level FlightAware Approximate
Fri 10:44:00 AM 7.9072 -67.0467 147° Southeast  Level FlightAware Approximate
Fri 10:45:00 AM 7.8086 -66.9824 147° Southeast  Level FlightAware Approximate
Fri 10:46:00 AM 7.7100 -66.9182 147° Southeast  Level FlightAware Approximate
Fri 10:47:00 AM 7.6114 -66.8539 147° Southeast  Level FlightAware Approximate
Fri 10:48:00 AM 7.5128 -66.7897 147° Southeast  Level FlightAware Approximate
Fri 10:49:00 AM 7.4142 -66.7256 147° Southeast  Level FlightAware Approximate
Fri 10:50:00 AM 7.3156 -66.6615 147° Southeast  Level FlightAware Approximate
Fri 10:51:00 AM 7.2170 -66.5974 147° Southeast  Level FlightAware Approximate
Fri 10:52:00 AM 7.1184 -66.5333 147° Southeast  Level FlightAware Approximate
Fri 10:53:00 AM 7.0197 -66.4692 147° Southeast  Level FlightAware Approximate
Fri 10:54:00 AM 6.9211 -66.4052 147° Southeast  Level FlightAware Approximate
Fri 10:55:00 AM 6.8224 -66.3412 147° Southeast  Level FlightAware Approximate
Fri 10:56:00 AM 6.7238 -66.2773 147° Southeast  Level FlightAware Approximate
Fri 10:57:00 AM 6.6251 -66.2133 147° Southeast  Level FlightAware Approximate
Fri 10:58:00 AM 6.5264 -66.1494 147° Southeast  Level FlightAware Approximate
Fri 10:59:00 AM 6.4277 -66.0855 147° Southeast  Level FlightAware Approximate
Fri 11:00:00 AM 6.3290 -66.0217 147° Southeast  Level FlightAware Approximate
Fri 11:01:00 AM 6.2303 -65.9578 147° Southeast  Level FlightAware Approximate
Fri 11:02:00 AM 6.1316 -65.8940 147° Southeast  Level FlightAware Approximate
Fri 11:03:00 AM 6.0329 -65.8302 147° Southeast  Level FlightAware Approximate
Fri 11:04:00 AM 5.9342 -65.7665 147° Southeast  Level FlightAware Approximate
Fri 11:05:00 AM 5.8354 -65.7027 147° Southeast  Level FlightAware Approximate
Fri 11:06:00 AM 5.7367 -65.6390 147° Southeast  Level FlightAware Approximate
Fri 11:07:00 AM 5.6379 -65.5753 147° Southeast  Level FlightAware Approximate
Fri 11:08:00 AM 5.5392 -65.5116 147° Southeast  Level FlightAware Approximate
Fri 11:09:00 AM 5.4404 -65.4480 147° Southeast  Level FlightAware Approximate
Fri 11:10:00 AM 5.3416 -65.3843 147° Southeast  Level FlightAware Approximate
Fri 11:11:00 AM 5.2428 -65.3207 147° Southeast  Level FlightAware Approximate
Fri 11:12:00 AM 5.1441 -65.2571 147° Southeast  Level FlightAware Approximate
Fri 11:13:00 AM 5.0453 -65.1935 147° Southeast  Level FlightAware Approximate
Fri 11:14:00 AM 4.9465 -65.1300 147° Southeast  Level FlightAware Approximate
Fri 11:15:00 AM 4.8477 -65.0664 147° Southeast  Level FlightAware Approximate
Fri 11:16:00 AM 4.7489 -65.0029 147° Southeast  Level FlightAware Approximate
Fri 11:17:00 AM 4.6501 -64.9394 147° Southeast  Level FlightAware Approximate
Fri 11:18:00 AM 4.5512 -64.8759 147° Southeast  Level FlightAware Approximate
Fri 11:19:00 AM 4.4524 -64.8125 147° Southeast  Level FlightAware Approximate
Fri 11:20:00 AM 4.3536 -64.7490 147° Southeast  Level FlightAware Approximate
Fri 11:21:00 AM 4.2547 -64.6856 147° Southeast  Level FlightAware Approximate
Fri 11:22:00 AM 4.1559 -64.6222 147° Southeast  Level FlightAware Approximate
Fri 11:23:00 AM 4.0571 -64.5588 147° Southeast  Level FlightAware Approximate
Fri 11:24:00 AM 3.9582 -64.4954 147° Southeast  Level FlightAware Approximate
Fri 11:25:00 AM 3.8593 -64.4320 147° Southeast  Level FlightAware Approximate
Fri 11:26:00 AM 3.7605 -64.3687 147° Southeast  Level FlightAware Approximate
Fri 11:27:00 AM 3.6616 -64.3054 147° Southeast  Level FlightAware Approximate
Fri 11:28:00 AM 3.5627 -64.2420 147° Southeast  Level FlightAware Approximate
Fri 11:29:00 AM 3.4639 -64.1787 147° Southeast  Level FlightAware Approximate
Fri 11:30:00 AM 3.3650 -64.1154 147° Southeast  Level FlightAware Approximate
Fri 11:31:00 AM 3.2661 -64.0521 147° Southeast  Level FlightAware Approximate
Fri 11:32:00 AM 3.1672 -63.9888 147° Southeast  Level FlightAware Approximate
Fri 11:33:00 AM 3.0683 -63.9256 147° Southeast  Level FlightAware Approximate
Fri 11:34:00 AM 2.9694 -63.8623 147° Southeast  Level FlightAware Approximate
Fri 11:35:00 AM 2.8705 -63.7991 147° Southeast  Level FlightAware Approximate
Fri 11:36:00 AM 2.7716 -63.7359 147° Southeast  Level FlightAware Approximate
Fri 11:37:00 AM 2.6727 -63.6726 147° Southeast  Level FlightAware Approximate
Fri 11:38:00 AM 2.5738 -63.6094 147° Southeast  Level FlightAware Approximate
Fri 11:39:00 AM 2.4749 -63.5462 147° Southeast  Level FlightAware Approximate
Fri 11:40:00 AM 2.3760 -63.4831 147° Southeast  Level FlightAware Approximate
Fri 11:41:00 AM 2.2771 -63.4199 147° Southeast  Level FlightAware Approximate
Fri 11:42:00 AM 2.1782 -63.3567 147° Southeast  Level FlightAware Approximate
Fri 11:43:00 AM 2.0793 -63.2935 147° Southeast  Level FlightAware Approximate
Fri 11:44:00 AM 1.9803 -63.2304 147° Southeast  Level FlightAware Approximate
Fri 11:45:00 AM 1.8814 -63.1672 147° Southeast  Level FlightAware Approximate
Fri 11:46:00 AM 1.7825 -63.1041 147° Southeast  Level FlightAware Approximate
Fri 11:47:00 AM 1.6835 -63.0410 147° Southeast  Level FlightAware Approximate
Fri 11:48:00 AM 1.5846 -62.9779 147° Southeast  Level FlightAware Approximate
Fri 11:49:00 AM 1.4857 -62.9147 147° Southeast  Level FlightAware Approximate
Fri 11:50:00 AM 1.3867 -62.8516 147° Southeast  Level FlightAware Approximate
Fri 11:51:00 AM 1.2878 -62.7885 147° Southeast  Level FlightAware Approximate
Fri 11:52:00 AM 1.1888 -62.7254 147° Southeast  Level FlightAware Approximate
Fri 11:53:00 AM 1.0899 -62.6623 147° Southeast  Level FlightAware Approximate
Fri 11:54:00 AM 0.9910 -62.5992 147° Southeast  Level FlightAware Approximate
Fri 11:55:00 AM 0.8920 -62.5361 147° Southeast  Level FlightAware Approximate
Fri 11:56:00 AM 0.7931 -62.4730 147° Southeast  Level FlightAware Approximate
Fri 11:57:00 AM 0.6941 -62.4100 147° Southeast  Level FlightAware Approximate
Fri 11:58:00 AM 0.5952 -62.3469 147° Southeast  Level FlightAware Approximate
Fri 11:59:00 AM 0.4962 -62.2838 147° Southeast  Level FlightAware Approximate
Fri 12:00:00 PM 0.3973 -62.2207 147° Southeast  Level FlightAware Approximate
Fri 12:01:00 PM 0.2983 -62.1576 147° Southeast  Level FlightAware Approximate
Fri 12:02:00 PM 0.1994 -62.0946 147° Southeast  Level FlightAware Approximate
Fri 12:03:00 PM 0.1004 -62.0315 147° Southeast  Level FlightAware Approximate
Fri 12:04:00 PM 0.0015 -61.9684 147° Southeast  Level FlightAware Approximate
Fri 12:05:00 PM -0.0975 -61.9053 147° Southeast  Level FlightAware Approximate
Fri 12:06:00 PM -0.1964 -61.8423 147° Southeast  Level FlightAware Approximate
Fri 12:07:00 PM -0.2954 -61.7792 147° Southeast  Level FlightAware Approximate
Fri 12:08:00 PM -0.3943 -61.7161 147° Southeast  Level FlightAware Approximate
Fri 12:09:00 PM -0.4933 -61.6530 147° Southeast  Level FlightAware Approximate
Fri 12:10:00 PM -0.5922 -61.5900 147° Southeast  Level FlightAware Approximate
Fri 12:11:00 PM -0.6912 -61.5269 147° Southeast  Level FlightAware Approximate
Fri 12:12:00 PM -0.7902 -61.4641 148° Southeast  Level FlightAware Approximate
Fri 12:13:00 PM -0.8895 -61.4014 148° Southeast  Level FlightAware Approximate
Fri 12:14:00 PM -0.9887 -61.3387 148° Southeast  Level FlightAware Approximate
Fri 12:15:00 PM -1.0884 -61.2770 149° Southeast  Level FlightAware Approximate
Fri 12:16:00 PM -1.1890 -61.2166 149° Southeast  Level FlightAware Approximate
Fri 12:17:00 PM -1.2864 -61.1512 145° Southeast  Level FlightAware Approximate
Fri 12:18:00 PM -1.3826 -61.0839 145° Southeast  Level FlightAware Approximate
Fri 12:19:00 PM -1.4855 -61.0278 148° Southeast  Level FlightAware Approximate
Fri 12:20:00 PM -1.5850 -60.9656 148° Southeast  Level FlightAware Approximate
Fri 12:21:00 PM -1.6845 -60.9034 148° Southeast  Level FlightAware Approximate
Fri 12:22:00 PM -1.7828 -60.8392 146° Southeast  Level FlightAware Approximate
Fri 12:23:00 PM -1.8804 -60.7742 146° Southeast  Level FlightAware Approximate
Fri 12:24:00 PM -1.9782 -60.7092 147° Southeast  Level FlightAware Approximate
Fri 12:25:00 PM -2.0765 -60.6451 147° Southeast  Level FlightAware Approximate
Fri 12:26:00 PM -2.1748 -60.5810 147° Southeast  Level FlightAware Approximate
Fri 12:27:00 PM -2.2731 -60.5168 147° Southeast  Level FlightAware Approximate
Fri 12:28:00 PM -2.3717 -60.4531 148° Southeast  Level FlightAware Approximate
Fri 12:29:00 PM -2.4712 -60.3909 148° Southeast  Level FlightAware Approximate
Fri 12:30:00 PM -2.5703 -60.3280 148° Southeast  Level FlightAware Approximate
Fri 12:31:00 PM -2.6694 -60.2651 151° Southeast  Level FlightAware Approximate
Fri 12:32:00 PM -2.7720 -60.2081 151° Southeast  Level FlightAware Approximate
Fri 12:33:00 PM -2.8672 -60.1414 153° Southeast  Level FlightAware Approximate
Fri 12:34:00 PM -2.9643 -60.0762 153° Southeast  Level FlightAware Approximate
Fri 12:35:00 PM -3.0167 -60.0500 153° Southeast  Level FlightAware Approximate
Fri 12:36:00 PM -3.0386 -60.0497 153° Southeast  Level Estimated
Fri 12:37:00 PM -3.0386 -60.0497 153° Southeast  Level Estimated
Fri 12:38:00 PM -3.0386 -60.0497 153° Southeast  Level Estimated
Fri 12:39:00 PM -3.0386 -60.0497 153° Southeast  Level Estimated
Fri 12:40:00 PM -3.0386 -60.0497 153° Southeast  Level Estimated
Fri 12:41:00 PM -3.0386 -60.0497 153° Southeast  Level Estimated
Fri 12:42:00 PM -3.0386 -60.0497 153° Southeast  Level Estimated
Fri 12:43:00 PM -3.0386 -60.0497 153° Southeast  Level Estimated
Fri 12:44:00 PM -3.0386 -60.0497 153° Southeast  Level Estimated
Fri 12:45:00 PM -3.0386 -60.0497 153° Southeast  Level Estimated
Fri 12:46:00 PM -3.0386 -60.0497 153° Southeast  Level Estimated

Login

Don't have an account? Register now (free) for customized features, flight alerts, and more!